Time;durP1;ratioP1;P1;durP2;ratioP2;P2;SDS_P1;SDS_P2;PMS_P1;PMS_P2;Temp;Humidity;BMP_temperature;BMP_pressure;BME280_temperature;BME280_humidity;BME280_pressure;Samples;Min_cycle;Max_cycle;Signal;HPM_P1;HPM_P2
2023/01/22 00:02:35;;;;;;;8.82;6.93;;;;;;;1.94;76.69;101101.59;10326285;28;20058;-70
2023/01/22 00:07:37;;;;;;;7.75;6.40;;;;;;;1.95;77.10;101098.03;10325930;28;20053;-68
2023/01/22 00:12:38;;;;;;;8.80;7.18;;;;;;;1.67;78.41;101077.06;10321875;28;20601;-67
2023/01/22 00:17:39;;;;;;;8.88;6.65;;;;;;;2.02;77.64;101093.47;10321355;28;20100;-68
2023/01/22 00:22:41;;;;;;;8.07;7.03;;;;;;;1.88;77.99;101076.38;10319720;28;20135;-68
2023/01/22 00:27:42;;;;;;;8.02;6.65;;;;;;;1.89;78.31;101091.25;10324741;28;20137;-67
2023/01/22 00:32:44;;;;;;;10.07;7.03;;;;;;;1.84;78.86;101071.28;10325556;28;20050;-69
2023/01/22 00:37:48;;;;;;;9.15;7.60;;;;;;;1.95;78.30;101082.28;10320125;28;20064;-70
2023/01/22 00:42:49;;;;;;;8.15;6.32;;;;;;;2.07;77.81;101091.53;10315823;28;20160;-68
2023/01/22 00:47:51;;;;;;;8.25;6.68;;;;;;;1.89;78.15;101072.84;10318254;28;20057;-66
2023/01/22 00:52:52;;;;;;;9.85;7.53;;;;;;;1.93;77.99;101073.59;10318562;28;20283;-67
2023/01/22 00:57:54;;;;;;;8.82;7.30;;;;;;;1.99;77.85;101069.94;10319665;28;20508;-67
2023/01/22 01:08:15;;;;;;;9.93;6.60;;;;;;;1.82;78.89;101086.19;10328320;28;20053;-69
2023/01/22 01:13:16;;;;;;;8.57;6.60;;;;;;;1.93;78.19;101069.19;10328651;28;20527;-67
2023/01/22 01:18:19;;;;;;;8.05;5.95;;;;;;;1.77;77.67;101066.22;10330593;28;20049;-66
2023/01/22 01:23:21;;;;;;;7.72;6.85;;;;;;;2.02;77.70;101075.09;10335300;28;20634;-69
2023/01/22 01:28:23;;;;;;;7.18;6.15;;;;;;;2.07;77.53;101081.03;10350608;28;20137;-68
2023/01/22 01:33:25;;;;;;;7.65;6.00;;;;;;;2.04;77.15;101066.25;10379866;28;20054;-68
2023/01/22 01:38:26;;;;;;;6.55;5.45;;;;;;;2.07;77.54;101081.91;10338916;28;20052;-68
2023/01/22 01:43:28;;;;;;;8.60;6.45;;;;;;;2.01;77.32;101057.59;10358312;28;20073;-69
2023/01/22 01:48:36;;;;;;;7.75;6.15;;;;;;;2.11;77.15;101077.41;10329453;28;20093;-68
2023/01/22 01:53:40;;;;;;;6.10;5.30;;;;;;;1.91;77.88;101073.66;10324249;28;20056;-68
2023/01/22 01:58:44;;;;;;;6.93;5.10;;;;;;;1.88;77.66;101057.16;10326451;28;20050;-68
2023/01/22 02:03:46;;;;;;;5.95;4.85;;;;;;;1.92;77.54;101046.50;10327593;28;20046;-68
2023/01/22 02:08:49;;;;;;;5.55;4.55;;;;;;;2.10;76.87;101073.94;10326893;28;20054;-68
2023/01/22 02:14:07;;;;;;;6.45;5.07;;;;;;;1.95;77.10;101066.53;10326014;28;20116;-67
2023/01/22 02:19:08;;;;;;;5.70;4.72;;;;;;;2.07;77.05;101066.16;10322535;28;20057;-67
2023/01/22 02:24:16;;;;;;;6.10;4.72;;;;;;;2.11;77.28;101056.41;10324792;28;20088;-67
2023/01/22 02:29:17;;;;;;;5.22;4.40;;;;;;;2.01;77.34;101061.13;10326644;28;20071;-67
2023/01/22 02:34:23;;;;;;;5.10;4.15;;;;;;;2.07;77.47;101060.91;10310696;28;20234;-67
2023/01/22 02:39:24;;;;;;;6.07;4.20;;;;;;;1.95;78.02;101077.03;10334811;28;20335;-68
2023/01/22 02:44:26;;;;;;;5.35;4.05;;;;;;;1.96;77.76;101056.91;10313845;28;20050;-68
2023/01/22 02:49:27;;;;;;;4.40;3.97;;;;;;;2.03;78.19;101067.16;10316323;28;20042;-68
2023/01/22 02:54:29;;;;;;;4.10;3.67;;;;;;;2.03;78.21;101075.03;10317857;28;20050;-67
2023/01/22 02:59:30;;;;;;;3.92;3.63;;;;;;;2.11;77.95;101062.50;10313732;28;20129;-68
2023/01/22 03:04:31;;;;;;;3.83;3.42;;;;;;;2.11;78.46;101080.03;10320096;28;20429;-67
2023/01/22 03:09:33;;;;;;;4.30;3.63;;;;;;;2.20;78.04;101060.50;10315996;28;20606;-67
2023/01/22 03:25:15;;;;;;;3.83;3.17;;;;;;;1.99;78.55;101052.41;10317805;28;20053;-66
2023/01/22 03:30:16;;;;;;;4.00;3.17;;;;;;;2.06;78.60;101053.94;10316206;28;20161;-67
2023/01/22 03:35:18;;;;;;;3.83;3.30;;;;;;;2.17;78.20;101071.13;10311566;28;20423;-67
2023/01/22 03:40:20;;;;;;;4.03;3.00;;;;;;;2.21;77.74;101073.59;10324458;28;20057;-66
2023/01/22 03:45:21;;;;;;;3.83;3.42;;;;;;;2.18;77.81;101051.78;10328671;28;20154;-68
2023/01/22 03:50:22;;;;;;;3.15;2.85;;;;;;;2.11;77.63;101057.25;10328654;28;20137;-66
2023/01/22 03:55:25;;;;;;;3.40;3.10;;;;;;;2.15;78.13;101065.03;10313692;28;20057;-67
2023/01/22 04:00:26;;;;;;;3.55;3.25;;;;;;;2.21;77.53;101063.09;10329758;28;20070;-67
2023/01/22 04:05:27;;;;;;;3.08;2.50;;;;;;;2.16;78.10;101061.50;10314797;28;20054;-66
2023/01/22 04:10:29;;;;;;;3.03;2.70;;;;;;;2.21;77.78;101072.75;10314560;28;20157;-67
2023/01/22 04:15:30;;;;;;;3.42;2.60;;;;;;;2.07;77.73;101060.91;10309385;28;20061;-66
2023/01/22 04:20:31;;;;;;;3.28;2.97;;;;;;;2.27;77.71;101098.81;10330956;28;20120;-67
2023/01/22 04:25:34;;;;;;;2.80;2.58;;;;;;;2.29;77.08;101081.22;10319035;28;20116;-68
2023/01/22 04:30:36;;;;;;;3.75;3.42;;;;;;;2.29;76.78;101076.81;10332246;28;20069;-69
2023/01/22 04:35:38;;;;;;;3.65;2.70;;;;;;;2.29;77.17;101094.34;10330867;28;20049;-67
2023/01/22 04:40:39;;;;;;;2.65;2.45;;;;;;;2.35;77.05;101091.53;10316962;28;20339;-67
2023/01/22 04:45:41;;;;;;;3.58;2.95;;;;;;;2.33;77.08;101082.84;10317429;28;20057;-67
2023/01/22 04:50:42;;;;;;;3.28;2.83;;;;;;;2.25;76.98;101074.34;10319209;28;20077;-68
2023/01/22 04:55:46;;;;;;;3.28;2.97;;;;;;;2.24;77.13;101084.00;10317324;28;20371;-68
2023/01/22 05:00:48;;;;;;;2.78;2.30;;;;;;;2.22;77.30;101075.31;10319596;28;20597;-68
2023/01/22 05:05:49;;;;;;;2.35;2.10;;;;;;;2.30;76.76;101078.53;10316983;28;20122;-67
2023/01/22 05:10:51;;;;;;;2.65;2.45;;;;;;;2.35;76.83;101085.41;10332567;28;20670;-67
2023/01/22 05:15:52;;;;;;;2.90;2.60;;;;;;;2.34;76.73;101078.44;10321992;28;20600;-68
2023/01/22 05:20:53;;;;;;;2.80;2.60;;;;;;;2.53;76.64;101099.72;10315385;28;20042;-68
2023/01/22 05:25:55;;;;;;;2.53;2.05;;;;;;;2.56;76.14;101103.09;10317157;28;20061;-68
2023/01/22 05:30:56;;;;;;;2.33;2.10;;;;;;;2.48;76.22;101105.13;10326452;28;20536;-68
2023/01/22 05:36:00;;;;;;;3.28;2.90;;;;;;;2.44;76.44;101090.38;10315822;28;20060;-67
2023/01/22 05:41:01;;;;;;;1.85;1.67;;;;;;;2.42;75.77;101077.28;10314568;28;20049;-67
2023/01/22 05:46:03;;;;;;;2.58;2.03;;;;;;;2.55;75.89;101103.13;10322781;28;20499;-68
2023/01/22 05:51:06;;;;;;;2.28;2.00;;;;;;;2.50;75.96;101099.81;10314468;28;20049;-68
2023/01/22 05:56:08;;;;;;;2.47;2.13;;;;;;;2.61;75.47;101092.41;10315808;28;20077;-68
2023/01/22 06:01:10;;;;;;;2.50;2.30;;;;;;;2.70;75.51;101107.88;10319940;28;20053;-70
2023/01/22 06:06:13;;;;;;;2.17;1.98;;;;;;;2.64;75.76;101108.97;10312061;28;20076;-68
2023/01/22 06:11:15;;;;;;;2.78;2.28;;;;;;;2.58;75.65;101100.41;10312541;28;20050;-68
2023/01/22 06:16:17;;;;;;;2.53;2.33;;;;;;;2.68;75.51;101128.09;10311604;28;20082;-68
2023/01/22 06:21:18;;;;;;;3.13;2.60;;;;;;;2.70;75.70;101118.38;10316853;28;20404;-68
2023/01/22 06:26:20;;;;;;;3.33;2.63;;;;;;;2.70;75.40;101117.53;10331315;28;20119;-67
2023/01/22 06:31:21;;;;;;;3.17;2.80;;;;;;;2.59;75.95;101123.16;10319478;28;20054;-70
2023/01/22 06:36:23;;;;;;;2.70;2.50;;;;;;;2.73;75.85;101130.56;10326125;28;20058;-68
2023/01/22 06:41:24;;;;;;;2.72;2.53;;;;;;;2.69;75.59;101137.72;10316030;28;20065;-68
2023/01/22 06:46:28;;;;;;;3.13;2.83;;;;;;;2.73;75.51;101128.81;10332133;28;20735;-68
2023/01/22 06:51:30;;;;;;;4.00;2.50;;;;;;;2.77;75.38;101140.94;10318907;28;20065;-66
2023/01/22 06:56:32;;;;;;;2.55;2.35;;;;;;;2.89;75.06;101152.81;10318979;28;20309;-69
2023/01/22 07:01:33;;;;;;;3.33;3.00;;;;;;;2.87;75.14;101161.66;10323516;28;20050;-66
2023/01/22 07:06:35;;;;;;;3.20;2.72;;;;;;;2.70;76.57;101165.72;10322134;28;20069;-68
2023/01/22 07:11:36;;;;;;;2.60;2.40;;;;;;;2.58;75.42;101151.22;10311224;28;20064;-71
2023/01/22 07:16:38;;;;;;;2.70;2.50;;;;;;;2.51;76.35;101159.34;10312903;28;20054;-67
2023/01/22 07:21:39;;;;;;;2.80;2.60;;;;;;;2.71;76.25;101175.31;10322984;28;20053;-69
2023/01/22 07:26:42;;;;;;;3.10;2.80;;;;;;;2.85;75.54;101172.22;10308925;28;20046;-70
2023/01/22 07:31:45;;;;;;;2.75;2.40;;;;;;;2.95;74.98;101185.94;10315241;28;20176;-69
2023/01/22 07:36:50;;;;;;;2.63;2.42;;;;;;;2.91;74.95;101179.06;10313748;28;20090;-69
2023/01/22 07:41:51;;;;;;;2.75;2.53;;;;;;;2.77;75.42;101183.00;10307603;28;20056;-69
2023/01/22 07:46:52;;;;;;;2.75;2.55;;;;;;;2.95;74.76;101201.72;10309467;28;20058;-69
2023/01/22 07:51:54;;;;;;;3.17;2.88;;;;;;;2.98;75.05;101206.88;10307852;28;20080;-69
2023/01/22 07:56:55;;;;;;;3.50;3.20;;;;;;;2.97;74.79;101199.91;10312828;28;20137;-69
2023/01/22 08:01:57;;;;;;;2.83;2.53;;;;;;;2.91;74.99;101195.72;10321405;28;20841;-69
2023/01/22 08:06:58;;;;;;;2.70;2.50;;;;;;;2.92;74.85;101186.06;10316334;28;20140;-69
2023/01/22 08:11:59;;;;;;;3.20;2.90;;;;;;;2.97;74.58;101198.16;10339255;28;20050;-68
2023/01/22 08:17:01;;;;;;;3.05;2.75;;;;;;;3.08;74.68;101224.09;10320712;28;20340;-69
2023/01/22 08:22:03;;;;;;;3.50;3.20;;;;;;;3.01;75.20;101227.81;10333702;28;20062;-70
2023/01/22 08:27:04;;;;;;;3.10;2.90;;;;;;;3.17;74.54;101236.91;10313917;28;20234;-69
2023/01/22 08:32:06;;;;;;;3.70;2.58;;;;;;;3.24;74.47;101241.97;10310601;28;20053;-67
2023/01/22 08:37:07;;;;;;;3.38;3.08;;;;;;;3.03;74.22;101210.22;10311143;28;20188;-66
2023/01/22 08:42:09;;;;;;;2.83;2.63;;;;;;;3.36;74.00;101249.44;10317034;28;20050;-64
2023/01/22 08:47:10;;;;;;;2.92;2.65;;;;;;;3.50;73.23;101247.19;10313061;28;20531;-67
2023/01/22 08:52:12;;;;;;;2.60;2.40;;;;;;;3.53;73.53;101246.25;10315759;28;20628;-68
2023/01/22 08:57:14;;;;;;;2.97;2.78;;;;;;;3.63;72.79;101239.69;10306338;28;20200;-65
2023/01/22 09:02:15;;;;;;;2.53;2.33;;;;;;;3.72;72.26;101257.84;10310537;28;20141;-68
2023/01/22 09:07:18;;;;;;;2.88;2.67;;;;;;;3.76;72.73;101258.56;10312332;28;20439;-67
2023/01/22 09:12:19;;;;;;;3.30;2.88;;;;;;;3.84;72.26;101266.19;10309069;28;20552;-65
2023/01/22 09:17:20;;;;;;;3.63;2.92;;;;;;;3.70;72.10;101254.38;10311711;28;20199;-68
2023/01/22 09:22:22;;;;;;;3.38;3.08;;;;;;;3.79;72.45;101281.31;10309711;28;20046;-67
2023/01/22 09:27:23;;;;;;;3.63;3.38;;;;;;;3.86;72.73;101286.31;10295844;28;20062;-67
2023/01/22 09:32:25;;;;;;;3.40;3.10;;;;;;;3.85;72.35;101279.31;10281982;28;20054;-67
2023/01/22 09:37:26;;;;;;;3.53;3.03;;;;;;;3.75;72.14;101272.66;10306147;28;20081;-65
2023/01/22 09:42:33;;;;;;;3.60;3.05;;;;;;;3.92;72.14;101281.72;10289119;28;20068;-66
2023/01/22 09:47:43;;;;;;;3.50;3.20;;;;;;;3.99;71.68;101291.13;10283980;28;20425;-66
2023/01/22 09:52:45;;;;;;;3.03;2.72;;;;;;;3.87;72.16;101292.41;10282817;28;20050;-66
2023/01/22 09:57:49;;;;;;;3.35;3.05;;;;;;;3.97;71.94;101293.81;10280649;28;20457;-67
2023/01/22 10:02:59;;;;;;;3.20;2.90;;;;;;;4.12;71.46;101286.28;10280360;28;20054;-65
2023/01/22 10:08:06;;;;;;;3.03;2.55;;;;;;;4.15;71.44;101292.28;10283713;28;20101;-66
2023/01/22 10:13:17;;;;;;;3.28;2.97;;;;;;;4.05;71.77;101289.13;10279227;28;20279;-68
2023/01/22 10:18:31;;;;;;;3.08;2.78;;;;;;;4.07;71.84;101294.34;10273746;28;21088;-65
2023/01/22 10:23:33;;;;;;;3.08;2.78;;;;;;;4.06;71.89;101295.25;10280454;28;20619;-68
2023/01/22 10:28:34;;;;;;;3.40;3.10;;;;;;;4.17;71.49;101290.44;10281336;28;20541;-67
2023/01/22 10:33:37;;;;;;;3.78;3.45;;;;;;;4.09;71.72;101292.50;10277333;28;20164;-67
2023/01/22 10:38:39;;;;;;;3.60;3.30;;;;;;;4.01;71.51;101279.63;10296844;28;20054;-65
2023/01/22 10:43:40;;;;;;;3.40;3.10;;;;;;;4.02;71.75;101293.63;10283602;28;20250;-65
2023/01/22 10:48:42;;;;;;;3.65;3.33;;;;;;;4.07;71.59;101297.00;10278506;28;20141;-66
2023/01/22 10:53:52;;;;;;;2.92;2.72;;;;;;;4.42;70.86;101289.53;10285278;28;20475;-67
2023/01/22 10:58:55;;;;;;;3.10;2.90;;;;;;;4.56;70.32;101292.50;10287086;28;20048;-67
2023/01/22 11:03:57;;;;;;;2.85;2.65;;;;;;;4.65;70.12;101296.53;10293801;28;20091;-67
2023/01/22 11:09:11;;;;;;;2.95;2.50;;;;;;;4.73;69.65;101304.16;10304683;28;20372;-66
2023/01/22 11:14:21;;;;;;;5.57;4.90;;;;;;;4.71;69.64;101306.00;10295050;28;20138;-66
2023/01/22 11:19:26;;;;;;;2.95;2.75;;;;;;;4.45;70.07;101289.41;10302524;28;20551;-66
2023/01/22 11:24:45;;;;;;;3.72;3.40;;;;;;;4.56;69.87;101302.16;10290159;28;20511;-68
2023/01/22 11:30:12;;;;;;;2.50;2.30;;;;;;;4.49;69.74;101306.84;10290400;28;20074;-67
2023/01/22 11:35:40;;;;;;;3.97;2.97;;;;;;;4.47;70.03;101298.09;10298826;28;20527;-69
2023/01/22 11:40:54;;;;;;;3.72;2.67;;;;;;;4.42;70.52;101302.72;10286032;28;20456;-69
2023/01/22 11:46:37;;;;;;;3.05;2.38;;;;;;;4.46;70.77;101296.41;10305929;28;20057;-68
2023/01/22 11:51:53;;;;;;;2.97;2.67;;;;;;;4.52;70.85;101300.56;10281764;28;21174;-66
2023/01/22 11:57:27;;;;;;;3.22;2.95;;;;;;;4.29;70.44;101251.38;10301161;28;20541;-68
2023/01/22 12:02:37;;;;;;;3.03;2.83;;;;;;;4.52;70.38;101288.25;10294686;28;20118;-68
2023/01/22 12:07:56;;;;;;;3.42;2.92;;;;;;;4.21;70.85;101270.97;10290891;28;20477;-68
2023/01/22 12:13:22;;;;;;;3.30;3.00;;;;;;;4.42;70.76;101273.72;10292308;28;20057;-67
2023/01/22 12:18:56;;;;;;;3.05;2.83;;;;;;;4.09;71.25;101224.00;10292468;28;20050;-68
2023/01/22 12:24:19;;;;;;;3.63;2.60;;;;;;;4.42;71.02;101268.44;10301826;28;20049;-67
2023/01/22 12:29:28;;;;;;;2.58;2.38;;;;;;;4.52;70.56;101275.06;10292226;28;20065;-66
2023/01/22 12:34:53;;;;;;;2.55;2.35;;;;;;;4.59;70.03;101270.41;10307553;28;20061;-66
2023/01/22 12:40:18;;;;;;;2.70;2.50;;;;;;;4.68;69.78;101269.19;10295311;28;20050;-65
2023/01/22 12:45:40;;;;;;;2.55;2.35;;;;;;;4.65;69.75;101274.59;10297228;28;20056;-65
2023/01/22 12:50:53;;;;;;;2.50;2.28;;;;;;;4.58;69.34;101271.34;10297339;28;20181;-67
2023/01/22 12:55:59;;;;;;;2.83;2.45;;;;;;;4.39;69.91;101236.91;10297311;28;20041;-67
2023/01/22 13:01:03;;;;;;;2.65;2.45;;;;;;;4.63;70.24;101265.88;10299050;28;20065;-65
2023/01/22 13:06:28;;;;;;;2.43;2.17;;;;;;;4.64;69.90;101283.41;10302839;28;20046;-66
2023/01/22 13:11:31;;;;;;;2.60;2.40;;;;;;;4.69;69.67;101281.47;10297346;28;20556;-68
2023/01/22 13:16:35;;;;;;;2.80;2.58;;;;;;;4.69;70.15;101284.94;10293717;28;20053;-66
2023/01/22 13:21:37;;;;;;;3.70;2.90;;;;;;;4.62;70.75;101290.53;10290827;28;20076;-69
2023/01/22 13:26:38;;;;;;;3.97;2.30;;;;;;;4.56;70.09;101297.78;10288068;28;20054;-69
2023/01/22 13:31:39;;;;;;;2.67;2.47;;;;;;;4.45;69.92;101278.84;10291905;28;20054;-68
2023/01/22 13:36:46;;;;;;;2.40;2.20;;;;;;;4.39;70.38;101279.94;10296440;28;20050;-67
2023/01/22 13:41:50;;;;;;;2.67;2.47;;;;;;;4.53;70.18;101308.41;10309663;28;20054;-70
2023/01/22 13:46:52;;;;;;;2.72;2.53;;;;;;;4.45;70.64;101312.28;10299405;28;20159;-65
2023/01/22 13:51:56;;;;;;;2.60;2.38;;;;;;;4.32;71.17;101303.97;10298821;28;20448;-67
2023/01/22 13:56:58;;;;;;;3.42;2.40;;;;;;;4.42;70.45;101305.34;10283418;28;20054;-68
2023/01/22 14:02:19;;;;;;;3.03;2.47;;;;;;;4.49;72.92;101305.94;10318835;28;20050;-66
2023/01/22 14:07:24;;;;;;;2.97;2.63;;;;;;;4.37;71.29;101312.59;10290725;28;20060;-71
2023/01/22 14:12:28;;;;;;;4.47;4.07;;;;;;;4.35;71.44;101303.84;10285092;28;20057;-70
2023/01/22 14:17:33;;;;;;;4.30;3.28;;;;;;;4.46;71.19;101317.50;10285127;28;20061;-69
2023/01/22 14:22:34;;;;;;;3.17;2.67;;;;;;;4.41;70.86;101314.16;10293987;28;20046;-68
2023/01/22 14:27:44;;;;;;;3.47;3.17;;;;;;;4.38;70.72;101319.56;10294209;28;20132;-68
2023/01/22 14:32:46;;;;;;;3.65;2.80;;;;;;;4.36;71.05;101321.41;10291938;28;20353;-72
2023/01/22 14:37:50;;;;;;;4.50;3.70;;;;;;;4.38;71.01;101328.34;10288939;28;20073;-70
2023/01/22 14:42:51;;;;;;;3.13;2.92;;;;;;;4.47;71.16;101340.28;10281414;28;20057;-66
2023/01/22 14:47:53;;;;;;;3.25;2.95;;;;;;;4.32;71.22;101339.09;10287527;28;20468;-65
2023/01/22 14:52:54;;;;;;;4.28;3.00;;;;;;;4.30;71.16;101333.03;10282953;28;20057;-68
2023/01/22 14:57:56;;;;;;;3.00;2.45;;;;;;;4.30;71.07;101332.19;10300968;28;20072;-67
2023/01/22 15:02:58;;;;;;;2.78;2.58;;;;;;;4.21;71.22;101315.75;10286585;28;20069;-67
2023/01/22 15:08:00;;;;;;;3.70;3.10;;;;;;;4.36;71.07;101342.50;10291365;28;20050;-68
2023/01/22 15:13:01;;;;;;;3.08;2.80;;;;;;;4.16;71.33;101330.91;10288357;28;20058;-67
2023/01/22 15:18:03;;;;;;;3.28;2.80;;;;;;;4.20;72.03;101342.19;10287053;28;20065;-70
2023/01/22 15:23:04;;;;;;;3.25;2.95;;;;;;;4.29;73.07;101336.56;10280349;28;20432;-69
2023/01/22 15:28:06;;;;;;;3.00;2.80;;;;;;;4.31;71.81;101354.97;10290848;28;20449;-72
2023/01/22 15:33:07;;;;;;;3.28;2.97;;;;;;;4.31;71.29;101368.13;10289592;28;20643;-68
2023/01/22 15:38:08;;;;;;;3.20;2.92;;;;;;;4.30;71.45;101371.72;10295307;28;20056;-68
2023/01/22 15:43:10;;;;;;;3.22;2.92;;;;;;;4.13;71.91;101362.63;10326124;28;20140;-68
2023/01/22 15:48:12;;;;;;;2.92;2.53;;;;;;;4.06;72.21;101355.84;10311953;28;20057;-68
2023/01/22 15:53:14;;;;;;;3.70;3.30;;;;;;;3.99;72.08;101354.34;10325448;28;20087;-70
2023/01/22 15:58:15;;;;;;;4.05;3.70;;;;;;;3.99;72.15;101351.72;10312314;28;20062;-69
2023/01/22 16:03:16;;;;;;;2.97;2.78;;;;;;;4.06;72.26;101372.53;10310284;28;20149;-69
2023/01/22 16:08:18;;;;;;;3.53;3.00;;;;;;;4.02;72.35;101372.69;10332914;28;20081;-70
2023/01/22 16:13:19;;;;;;;4.28;3.88;;;;;;;3.93;72.59;101384.41;10307177;28;20129;-68
2023/01/22 16:18:20;;;;;;;6.38;5.55;;;;;;;4.04;72.48;101391.97;10310864;28;20148;-69
2023/01/22 16:23:22;;;;;;;4.03;3.63;;;;;;;3.99;72.80;101383.34;10336325;28;20496;-69
2023/01/22 16:28:23;;;;;;;3.85;3.55;;;;;;;3.99;72.70;101376.28;10325303;28;20047;-69
2023/01/22 16:33:28;;;;;;;3.55;3.25;;;;;;;4.02;72.45;101401.66;10318920;28;20123;-71
2023/01/22 16:38:30;;;;;;;4.33;3.83;;;;;;;3.96;72.82;101407.16;10320009;28;20200;-68
2023/01/22 16:43:32;;;;;;;6.35;4.50;;;;;;;3.84;73.54;101413.69;10316831;28;20226;-69
2023/01/22 16:48:33;;;;;;;6.15;5.10;;;;;;;3.96;73.01;101422.97;10313961;28;20053;-68
2023/01/22 16:53:34;;;;;;;5.35;4.85;;;;;;;3.88;72.90;101403.00;10319251;28;20512;-68
2023/01/22 16:58:36;;;;;;;4.55;4.15;;;;;;;3.87;72.97;101411.84;10315812;28;20052;-68
2023/01/22 17:03:38;;;;;;;5.15;4.70;;;;;;;3.96;73.22;101429.09;10314455;28;20299;-68
2023/01/22 17:08:39;;;;;;;5.18;4.72;;;;;;;3.79;73.80;101420.91;10314444;28;20646;-69
2023/01/22 17:13:40;;;;;;;5.68;5.07;;;;;;;3.92;73.44;101442.41;10310938;28;20054;-67
2023/01/22 17:18:42;;;;;;;5.43;4.82;;;;;;;3.93;73.69;101446.78;10312167;28;20064;-70
2023/01/22 17:23:44;;;;;;;4.90;4.40;;;;;;;3.81;73.57;101430.47;10305911;28;20042;-69
2023/01/22 17:28:45;;;;;;;4.55;4.15;;;;;;;3.93;73.70;101445.00;10313635;28;20282;-68
2023/01/22 17:33:47;;;;;;;5.60;5.10;;;;;;;3.96;73.58;101455.44;10314459;28;20068;-67
2023/01/22 17:38:49;;;;;;;6.63;6.03;;;;;;;3.94;74.08;101459.06;10313561;28;20597;-69
2023/01/22 17:43:51;;;;;;;6.03;5.50;;;;;;;3.68;75.04;101455.50;10316220;28;20046;-70
2023/01/22 17:48:53;;;;;;;5.47;4.97;;;;;;;3.79;75.28;101463.06;10316902;28;20042;-69
2023/01/22 17:53:58;;;;;;;5.65;5.13;;;;;;;3.81;75.28;101469.97;10333529;28;20189;-69
2023/01/22 17:59:02;;;;;;;5.93;5.43;;;;;;;3.88;74.93;101474.13;10325994;28;20567;-68
2023/01/22 18:04:09;;;;;;;6.15;5.50;;;;;;;3.91;74.92;101477.59;10312144;28;20627;-70
2023/01/22 18:09:10;;;;;;;6.35;5.75;;;;;;;3.50;76.11;101460.44;10313199;28;20066;-70
2023/01/22 18:14:20;;;;;;;6.10;5.50;;;;;;;3.65;76.30;101479.31;10314203;28;20481;-68
2023/01/22 18:19:23;;;;;;;6.75;6.15;;;;;;;3.56;76.70;101471.66;10317660;28;20370;-66
2023/01/22 18:24:25;;;;;;;6.00;5.40;;;;;;;3.67;76.86;101490.63;10314444;28;20085;-68
2023/01/22 18:29:27;;;;;;;5.80;5.30;;;;;;;3.45;76.84;101454.47;10311812;28;20057;-69
2023/01/22 18:34:29;;;;;;;6.40;5.82;;;;;;;3.59;77.20;101493.53;10331013;28;20049;-69
2023/01/22 18:39:30;;;;;;;6.47;5.68;;;;;;;3.57;77.43;101490.06;10314451;28;20049;-70
2023/01/22 18:44:32;;;;;;;6.82;6.13;;;;;;;3.61;77.67;101506.63;10315726;28;20734;-69
2023/01/22 18:49:33;;;;;;;6.80;6.10;;;;;;;3.50;78.13;101489.41;10313482;28;20144;-67
2023/01/22 18:54:35;;;;;;;7.13;6.28;;;;;;;3.49;78.77;101506.09;10313904;28;20053;-68
2023/01/22 18:59:36;;;;;;;8.77;5.70;;;;;;;3.45;78.66;101501.84;10314438;28;20049;-72
2023/01/22 19:04:38;;;;;;;6.55;5.90;;;;;;;3.46;78.87;101511.47;10312207;28;20402;-69
2023/01/22 19:09:41;;;;;;;6.43;5.82;;;;;;;3.32;79.07;101492.63;10312826;28;20459;-68
2023/01/22 19:14:43;;;;;;;7.35;6.28;;;;;;;3.19;79.72;101494.75;10310634;28;20050;-69
2023/01/22 19:19:44;;;;;;;6.75;6.13;;;;;;;3.38;79.29;101494.16;10327803;28;20054;-69
2023/01/22 19:24:45;;;;;;;7.18;5.70;;;;;;;3.54;78.51;101517.38;10312005;28;20064;-70
2023/01/22 19:29:47;;;;;;;6.38;5.75;;;;;;;3.53;78.37;101523.53;10313445;28;20070;-71
2023/01/22 19:34:49;;;;;;;6.38;5.78;;;;;;;3.36;78.24;101510.00;10314737;28;20103;-70
2023/01/22 19:39:50;;;;;;;6.38;5.60;;;;;;;3.58;78.15;101543.59;10309157;28;20070;-69
2023/01/22 19:44:52;;;;;;;7.18;6.35;;;;;;;3.51;78.23;101541.16;10316092;28;20042;-70
2023/01/22 19:49:53;;;;;;;6.75;6.05;;;;;;;3.53;77.68;101531.44;10314981;28;20061;-71
2023/01/22 19:54:54;;;;;;;6.88;6.18;;;;;;;3.67;77.74;101552.06;10342816;28;20061;-68
2023/01/22 19:59:57;;;;;;;6.85;6.25;;;;;;;3.60;77.79;101541.78;10318908;28;20064;-69
2023/01/22 20:04:59;;;;;;;8.10;6.45;;;;;;;3.62;77.43;101546.09;10318858;28;20060;-69
2023/01/22 20:10:00;;;;;;;7.20;6.50;;;;;;;3.61;77.42;101554.88;10319964;28;20057;-69
2023/01/22 20:15:03;;;;;;;7.90;7.10;;;;;;;3.62;77.73;101566.28;10313777;28;20101;-69
2023/01/22 20:20:05;;;;;;;6.78;6.07;;;;;;;3.59;77.35;101567.25;10304878;28;20913;-68
2023/01/22 20:25:07;;;;;;;7.55;6.85;;;;;;;3.71;77.12;101581.81;10304229;28;20048;-66
2023/01/22 20:30:09;;;;;;;8.70;7.13;;;;;;;3.65;76.95;101566.22;10300488;28;23023;-67
2023/01/22 20:35:14;;;;;;;7.60;6.47;;;;;;;3.69;77.12;101570.44;10296170;28;21274;-67
2023/01/22 20:40:16;;;;;;;7.50;6.78;;;;;;;3.60;77.27;101555.78;10303941;28;20057;-68
2023/01/22 20:45:17;;;;;;;7.53;6.53;;;;;;;3.77;77.17;101581.63;10297000;28;20576;-66
2023/01/22 20:50:19;;;;;;;9.00;8.10;;;;;;;3.71;76.84;101564.22;10296359;28;20054;-67
2023/01/22 20:55:20;;;;;;;8.35;7.38;;;;;;;3.70;77.01;101574.81;10303815;28;20453;-66
2023/01/22 21:00:22;;;;;;;8.13;7.07;;;;;;;3.66;77.05;101579.31;10320195;28;20582;-68
2023/01/22 21:05:24;;;;;;;8.30;7.22;;;;;;;3.73;76.81;101580.00;10297148;28;20053;-70
2023/01/22 21:10:25;;;;;;;7.90;6.88;;;;;;;3.74;76.48;101579.09;10309721;28;20257;-67
2023/01/22 21:15:27;;;;;;;8.40;7.07;;;;;;;3.74;76.01;101587.00;10300684;28;20050;-66
2023/01/22 21:20:29;;;;;;;7.82;7.03;;;;;;;3.71;76.44;101598.47;10299299;28;20084;-67
2023/01/22 21:25:33;;;;;;;8.00;7.10;;;;;;;3.74;76.18;101592.25;10284476;28;20053;-68
2023/01/22 21:30:35;;;;;;;7.93;7.13;;;;;;;3.72;76.35;101592.31;10294692;28;20050;-68
2023/01/22 21:35:36;;;;;;;8.90;6.90;;;;;;;3.63;76.38;101574.13;10303036;28;20104;-69
2023/01/22 21:40:37;;;;;;;8.13;7.32;;;;;;;3.76;76.00;101586.94;10299713;28;20054;-68
2023/01/22 21:51:02;;;;;;;7.53;6.68;;;;;;;3.82;75.51;101589.38;10297565;28;22317;-69
2023/01/22 21:56:04;;;;;;;7.13;6.43;;;;;;;3.76;75.68;101593.06;10287017;28;20037;-69
2023/01/22 22:01:06;;;;;;;6.88;6.25;;;;;;;3.77;75.60;101602.69;10291830;28;20062;-66
2023/01/22 22:06:09;;;;;;;6.57;5.90;;;;;;;3.77;75.75;101592.16;10291194;28;20115;-68
2023/01/22 22:11:12;;;;;;;7.45;6.65;;;;;;;3.71;75.53;101592.34;10292246;28;20168;-69
2023/01/22 22:16:14;;;;;;;6.45;5.80;;;;;;;3.79;75.13;101602.66;10291321;28;20111;-68
2023/01/22 22:21:15;;;;;;;7.32;6.57;;;;;;;3.62;75.97;101582.94;10289404;28;20490;-68
2023/01/22 22:26:17;;;;;;;7.38;6.68;;;;;;;3.62;76.35;101604.03;10286872;28;20168;-67
2023/01/22 22:31:19;;;;;;;7.03;6.32;;;;;;;3.63;76.71;101605.72;10289348;28;21124;-69
2023/01/22 22:36:23;;;;;;;7.05;6.35;;;;;;;3.61;76.33;101604.06;10290228;28;20058;-66
2023/01/22 22:41:27;;;;;;;8.50;7.40;;;;;;;3.58;76.84;101622.59;10306127;28;20129;-67
2023/01/22 22:46:31;;;;;;;7.33;6.63;;;;;;;3.62;76.99;101616.31;10293108;28;20701;-68
2023/01/22 22:51:35;;;;;;;7.73;6.80;;;;;;;3.58;76.80;101609.44;10294991;28;20061;-68
2023/01/22 22:56:37;;;;;;;8.27;7.47;;;;;;;3.50;76.84;101589.44;10315586;28;20465;-70
2023/01/22 23:01:38;;;;;;;7.93;6.60;;;;;;;3.54;77.09;101596.34;10311223;28;20069;-68
2023/01/22 23:06:43;;;;;;;7.80;6.93;;;;;;;3.66;77.07;101621.47;10312015;28;20120;-70
2023/01/22 23:11:46;;;;;;;7.75;6.95;;;;;;;3.59;77.52;101624.28;10321113;28;20073;-70
2023/01/22 23:16:48;;;;;;;8.23;7.05;;;;;;;3.64;77.64;101619.78;10315029;28;20474;-68
2023/01/22 23:21:51;;;;;;;7.10;6.40;;;;;;;3.57;77.36;101610.31;10335179;28;20074;-69
2023/01/22 23:26:54;;;;;;;8.48;7.30;;;;;;;3.58;77.88;101622.59;10335669;28;20130;-67
2023/01/22 23:31:56;;;;;;;8.18;6.82;;;;;;;3.50;77.72;101609.66;10316844;28;20133;-68
2023/01/22 23:36:57;;;;;;;8.13;7.32;;;;;;;3.41;77.69;101620.44;10313791;28;20366;-69
2023/01/22 23:41:59;;;;;;;7.38;6.63;;;;;;;3.39;77.82;101611.72;10315580;28;20424;-71
2023/01/22 23:47:00;;;;;;;8.20;6.97;;;;;;;3.41;77.90;101616.03;10314506;28;20565;-70
2023/01/22 23:52:02;;;;;;;7.90;6.75;;;;;;;3.44;78.10;101622.97;10314547;28;20564;-69